Time;durP1;ratioP1;P1;durP2;ratioP2;P2;SDS_P1;SDS_P2;PMS_P1;PMS_P2;Temp;Humidity;BMP_temperature;BMP_pressure;BME280_temperature;BME280_humidity;BME280_pressure;Samples;Min_cycle;Max_cycle;Signal;HPM_P1;HPM_P2
2023/03/12 00:00:50;;;;;;;8.23;4.43;;;-1.40;99.90;-1.70;100059.00;;;;4959129;28;88270;-62
2023/03/12 00:03:16;;;;;;;3.00;2.80;;;-1.40;99.90;-1.70;100070.00;;;;4959717;28;110978;-64
2023/03/12 00:05:43;;;;;;;2.80;2.57;;;-1.40;99.90;-1.70;100066.00;;;;4972058;28;87910;-62
2023/03/12 00:08:10;;;;;;;3.80;3.00;;;-1.30;99.90;-1.70;100063.00;;;;4957844;28;88054;-65
2023/03/12 00:10:38;;;;;;;5.77;3.30;;;-1.30;99.90;-1.70;100073.00;;;;4958905;28;103021;-65
2023/03/12 00:13:04;;;;;;;5.10;2.57;;;-1.30;99.90;-1.70;100069.00;;;;4958887;28;106345;-64
2023/03/12 00:15:30;;;;;;;4.20;2.60;;;-1.20;99.90;-1.70;100075.00;;;;4960110;28;107424;-63
2023/03/12 00:17:55;;;;;;;3.53;2.93;;;-1.30;99.90;-1.60;100068.00;;;;4962182;28;108374;-63
2023/03/12 00:20:22;;;;;;;5.43;3.10;;;-1.20;99.90;-1.60;100063.00;;;;4958968;28;116213;-63
2023/03/12 00:22:49;;;;;;;3.70;2.73;;;-1.20;99.90;-1.60;100067.00;;;;4959065;28;87775;-65
2023/03/12 00:25:15;;;;;;;4.00;3.10;;;-1.30;99.90;-1.60;100075.00;;;;4964946;28;99850;-64
2023/03/12 00:27:42;;;;;;;6.43;3.43;;;-1.20;99.90;-1.60;100066.00;;;;4975082;28;109624;-63
2023/03/12 00:30:09;;;;;;;4.80;2.87;;;-1.20;99.90;-1.60;100073.00;;;;4959857;28;88046;-64
2023/03/12 00:32:36;;;;;;;5.73;2.80;;;-1.20;99.90;-1.60;100076.00;;;;4961414;28;87968;-65
2023/03/12 00:35:02;;;;;;;4.07;3.20;;;-1.30;99.90;-1.60;100070.00;;;;4956128;28;88696;-64
2023/03/12 00:37:28;;;;;;;3.73;2.93;;;-1.30;99.90;-1.60;100064.00;;;;4957858;28;99825;-65
2023/03/12 00:39:54;;;;;;;2.90;2.50;;;-1.20;99.90;-1.60;100057.00;;;;4960499;28;114472;-65
2023/03/12 00:42:20;;;;;;;3.93;2.57;;;-1.20;99.90;-1.60;100058.00;;;;4968954;28;117510;-65
2023/03/12 00:44:46;;;;;;;4.00;2.80;;;-0.70;99.90;-1.60;100060.00;;;;4955129;28;87801;-64
2023/03/12 00:47:12;;;;;;;5.97;2.80;;;-1.20;99.90;-1.60;100053.00;;;;4959113;28;87993;-65
2023/03/12 00:49:38;;;;;;;3.37;2.53;;;-1.30;99.90;-1.60;100061.00;;;;4960616;28;87920;-65
2023/03/12 00:52:04;;;;;;;3.53;3.00;;;-1.20;99.90;-1.60;100065.00;;;;4954894;28;117517;-65
2023/03/12 00:54:30;;;;;;;2.67;2.47;;;-1.20;99.90;-1.60;100057.00;;;;4960328;28;95683;-63
2023/03/12 00:56:56;;;;;;;3.80;2.33;;;-1.20;99.90;-1.60;100056.00;;;;4951990;28;108920;-65
2023/03/12 00:59:21;;;;;;;6.10;2.80;;;-1.20;99.90;-1.60;100059.00;;;;4954914;28;118011;-65
2023/03/12 01:01:47;;;;;;;3.83;2.30;;;-1.30;99.90;-1.60;100065.00;;;;4969378;28;117612;-65
2023/03/12 01:04:13;;;;;;;3.93;2.47;;;-1.20;99.90;-1.60;100052.00;;;;4956982;28;110136;-65
2023/03/12 01:06:39;;;;;;;6.53;2.80;;;-1.20;99.90;-1.50;100051.00;;;;4955289;28;109133;-65
2023/03/12 01:09:06;;;;;;;4.30;2.00;;;-1.10;99.90;-1.50;100054.00;;;;4954896;28;118191;-65
2023/03/12 01:11:33;;;;;;;2.90;1.83;;;-1.10;99.90;-1.50;100050.00;;;;4964775;28;107290;-63
2023/03/12 01:14:00;;;;;;;3.97;2.20;;;-1.20;99.90;-1.50;100061.00;;;;4970147;28;87819;-65
2023/03/12 01:16:28;;;;;;;4.30;2.77;;;-1.20;99.90;-1.60;100062.00;;;;4962145;28;87104;-64
2023/03/12 01:18:59;;;;;;;6.37;2.30;;;-1.10;99.90;-1.50;100063.00;;;;4957173;28;88342;-63
2023/03/12 01:21:26;;;;;;;6.33;2.07;;;-1.20;99.90;-1.60;100057.00;;;;4969546;28;88319;-64
2023/03/12 01:23:53;;;;;;;4.20;2.17;;;-1.10;99.90;-1.60;100056.00;;;;4957711;28;99949;-66
2023/03/12 01:26:22;;;;;;;2.33;2.13;;;-1.20;99.90;-1.60;100066.00;;;;4957863;28;87838;-64
2023/03/12 01:28:48;;;;;;;3.80;1.67;;;-1.20;99.90;-1.60;100058.00;;;;4957862;28;88335;-64
2023/03/12 01:31:20;;;;;;;5.57;2.10;;;-1.10;99.90;-1.60;100064.00;;;;4954359;28;87982;-65
2023/03/12 01:33:52;;;;;;;2.97;1.90;;;-1.20;99.90;-1.60;100064.00;;;;4958349;28;87854;-66
2023/03/12 01:36:22;;;;;;;4.03;2.20;;;-1.30;99.90;-1.60;100067.00;;;;4953893;28;109096;-66
2023/03/12 01:38:51;;;;;;;5.33;2.00;;;-1.20;99.90;-1.70;100076.00;;;;4967410;28;88199;-66
2023/03/12 01:41:18;;;;;;;3.00;2.00;;;-1.20;99.90;-1.70;100075.00;;;;4951506;28;87808;-64
2023/03/12 01:43:44;;;;;;;3.23;2.07;;;-1.20;99.90;-1.60;100070.00;;;;4960066;28;89375;-64
2023/03/12 01:46:23;;;;;;;2.50;2.17;;;-1.30;99.90;-1.70;100076.00;;;;4957213;28;107436;-64
2023/03/12 01:49:03;;;;;;;4.13;2.27;;;-1.20;99.90;-1.70;100079.00;;;;4958247;28;88957;-67
2023/03/12 01:52:00;;;;;;;4.47;1.30;;;-1.30;99.90;-1.70;100070.00;;;;4958858;28;88788;-65
2023/03/12 01:54:44;;;;;;;2.70;1.80;;;-1.30;99.90;-1.70;100081.00;;;;4958376;28;88215;-66
2023/03/12 01:57:16;;;;;;;2.67;2.03;;;-1.30;99.90;-1.70;100075.00;;;;4964978;28;87689;-67
2023/03/12 01:59:46;;;;;;;2.60;1.67;;;-1.30;99.90;-1.70;100077.00;;;;4955387;28;108915;-67
2023/03/12 02:02:14;;;;;;;2.87;1.73;;;-1.00;99.90;-1.70;100075.00;;;;4956269;28;93809;-65
2023/03/12 02:04:42;;;;;;;1.87;1.43;;;-1.30;99.90;-1.70;100079.00;;;;4960171;28;94897;-65
2023/03/12 02:07:12;;;;;;;1.93;1.70;;;-1.30;99.90;-1.70;100061.00;;;;4960921;28;89579;-64
2023/03/12 02:09:45;;;;;;;2.03;1.40;;;-1.30;99.90;-1.70;100065.00;;;;4958057;28;88174;-65
2023/03/12 02:12:15;;;;;;;2.17;1.40;;;-1.30;99.90;-1.70;100067.00;;;;4968971;28;88617;-67
2023/03/12 02:14:41;;;;;;;4.20;1.83;;;-1.30;99.90;-1.70;100069.00;;;;4956811;28;89098;-66
2023/03/12 02:17:13;;;;;;;2.37;1.40;;;-1.40;99.90;-1.70;100063.00;;;;4967778;28;90644;-67
2023/03/12 02:20:00;;;;;;;8.10;2.10;;;-1.30;99.90;-1.80;100070.00;;;;4957644;28;116456;-66
2023/03/12 02:22:25;;;;;;;4.33;1.80;;;-1.30;99.90;-1.80;100066.00;;;;4956998;28;87967;-65
2023/03/12 02:25:29;;;;;;;2.90;1.73;;;-1.40;99.90;-1.80;100069.00;;;;4955737;28;111712;-67
2023/03/12 02:27:57;;;;;;;3.40;1.90;;;-1.40;99.90;-1.80;100092.00;;;;4966395;28;88009;-67
2023/03/12 02:30:24;;;;;;;3.43;1.50;;;-1.40;99.90;-1.90;100086.00;;;;4956394;28;107640;-67
2023/03/12 02:32:51;;;;;;;2.93;1.53;;;-1.50;99.90;-1.90;100078.00;;;;4956950;28;108861;-67
2023/03/12 02:35:17;;;;;;;3.80;1.90;;;-1.50;99.90;-1.90;100096.00;;;;4971530;28;87722;-68
2023/03/12 02:37:52;;;;;;;2.57;1.40;;;-1.50;99.90;-2.00;100087.00;;;;4954604;28;108326;-67
2023/03/12 02:40:41;;;;;;;2.20;1.20;;;-1.50;99.90;-2.00;100090.00;;;;4951898;28;95346;-67
2023/03/12 02:43:08;;;;;;;1.30;1.20;;;-1.50;99.90;-2.00;100100.00;;;;4956344;28;105770;-66
2023/03/12 02:45:36;;;;;;;2.13;1.47;;;-1.60;99.90;-2.00;100106.00;;;;4959722;28;88657;-66
2023/03/12 02:48:04;;;;;;;2.50;1.67;;;-1.60;99.90;-2.00;100103.00;;;;4952045;28;90258;-66
2023/03/12 02:50:29;;;;;;;1.87;1.37;;;-1.60;99.90;-2.10;100102.00;;;;4959686;28;107990;-67
2023/03/12 02:52:56;;;;;;;2.23;1.90;;;-1.60;99.90;-2.10;100109.00;;;;4959625;28;87711;-66
2023/03/12 02:55:22;;;;;;;1.97;1.30;;;-1.70;99.90;-2.10;100103.00;;;;4966671;28;109774;-66
2023/03/12 02:57:47;;;;;;;7.63;1.70;;;-1.70;99.90;-2.10;100115.00;;;;4959981;28;107734;-66
2023/03/12 03:00:15;;;;;;;1.90;1.20;;;-1.60;99.90;-2.10;100109.00;;;;4956414;28;116558;-65
2023/03/12 03:02:42;;;;;;;1.83;1.40;;;-1.70;99.90;-2.10;100106.00;;;;4959295;28;107214;-65
2023/03/12 03:05:10;;;;;;;3.73;1.60;;;-1.80;99.90;-2.10;100102.00;;;;4953038;28;109979;-65
2023/03/12 03:07:35;;;;;;;6.10;1.90;;;-1.70;99.90;-2.10;100110.00;;;;4960459;28;87912;-67
2023/03/12 03:10:03;;;;;;;3.27;2.03;;;-1.70;99.90;-2.10;100108.00;;;;4958548;28;117244;-67
2023/03/12 03:12:30;;;;;;;1.67;1.00;;;-1.60;99.90;-2.10;100109.00;;;;4969886;28;87901;-65
2023/03/12 03:14:56;;;;;;;1.90;1.50;;;-1.70;99.90;-2.10;100121.00;;;;4957777;28;101207;-66
2023/03/12 03:17:23;;;;;;;2.73;1.43;;;-1.70;99.90;-2.10;100116.00;;;;4956013;28;108016;-65
2023/03/12 03:19:50;;;;;;;1.13;1.03;;;-1.70;99.90;-2.10;100122.00;;;;4956222;28;89438;-66
2023/03/12 03:22:17;;;;;;;4.73;1.87;;;-1.70;99.90;-2.00;100124.00;;;;4959554;28;87863;-67
2023/03/12 03:24:43;;;;;;;1.33;1.23;;;-1.60;99.90;-2.00;100127.00;;;;4959855;28;87895;-67
2023/03/12 03:27:08;;;;;;;1.90;1.30;;;-1.70;99.90;-2.00;100131.00;;;;4952977;28;106509;-67
2023/03/12 03:29:34;;;;;;;2.87;1.50;;;-1.60;99.90;-2.00;100134.00;;;;4951433;28;117570;-67
2023/03/12 03:32:00;;;;;;;2.57;1.40;;;-1.70;99.90;-2.10;100136.00;;;;4972362;28;118524;-67
2023/03/12 03:34:38;;;;;;;2.70;1.53;;;-1.60;99.90;-2.10;100130.00;;;;4960411;28;110434;-67
2023/03/12 03:37:04;;;;;;;4.57;1.80;;;-1.60;99.90;-2.10;100147.00;;;;4954996;28;109583;-65
2023/03/12 03:39:30;;;;;;;1.20;1.07;;;-1.60;99.90;-2.10;100143.00;;;;4951879;28;102438;-65
2023/03/12 03:41:55;;;;;;;2.50;1.53;;;-1.70;99.90;-2.10;100138.00;;;;4956129;28;87926;-65
2023/03/12 03:44:21;;;;;;;3.70;1.93;;;-1.70;99.90;-2.10;100146.00;;;;4958671;28;93173;-65
2023/03/12 03:46:48;;;;;;;2.07;1.33;;;-1.60;99.90;-2.10;100146.00;;;;4960131;28;87150;-67
2023/03/12 03:49:15;;;;;;;1.93;1.27;;;-1.60;99.90;-2.10;100148.00;;;;4954441;28;109920;-65
2023/03/12 03:51:41;;;;;;;1.83;1.30;;;-1.60;99.90;-2.10;100153.00;;;;4962469;28;88583;-66
2023/03/12 03:54:09;;;;;;;3.17;1.70;;;-1.70;99.90;-2.10;100147.00;;;;4958083;28;88671;-65
2023/03/12 03:56:35;;;;;;;2.27;1.27;;;-1.60;99.90;-2.10;100160.00;;;;4959189;28;103393;-66
2023/03/12 03:59:01;;;;;;;2.30;1.50;;;-2.30;99.90;-2.10;100154.00;;;;4956154;28;115343;-65
2023/03/12 04:01:28;;;;;;;2.67;1.70;;;-1.70;99.90;-2.10;100152.00;;;;4951732;28;87997;-67
2023/03/12 04:03:53;;;;;;;4.83;2.30;;;-1.70;99.90;-2.10;100154.00;;;;4959020;28;99289;-65
2023/03/12 04:06:19;;;;;;;4.13;1.60;;;-1.60;99.90;-2.00;100159.00;;;;4951471;28;108151;-65
2023/03/12 04:08:45;;;;;;;3.07;2.00;;;-1.60;99.90;-2.00;100165.00;;;;4968338;28;116819;-66
2023/03/12 04:11:17;;;;;;;2.43;1.57;;;-1.60;99.90;-2.00;100164.00;;;;4952438;28;116807;-67
2023/03/12 04:13:43;;;;;;;2.60;1.53;;;-1.60;99.90;-2.00;100172.00;;;;4957463;28;87771;-66
2023/03/12 04:16:10;;;;;;;9.83;1.63;;;-1.60;99.90;-2.00;100167.00;;;;4957959;28;88044;-65
2023/03/12 04:18:36;;;;;;;1.77;1.50;;;-1.60;99.90;-2.00;100163.00;;;;4960082;28;89308;-66
2023/03/12 04:21:05;;;;;;;6.07;1.50;;;-1.60;99.90;-2.10;100164.00;;;;4956133;28;88678;-67
2023/03/12 04:23:31;;;;;;;5.00;1.80;;;-1.70;99.90;-2.10;100171.00;;;;4954439;28;87788;-65
2023/03/12 04:25:57;;;;;;;4.57;1.40;;;-1.60;99.90;-2.10;100164.00;;;;4954299;28;87900;-67
2023/03/12 04:28:22;;;;;;;7.17;1.77;;;-1.70;99.90;-2.10;100167.00;;;;4964244;28;118017;-64
2023/03/12 04:31:00;;;;;;;5.03;1.80;;;-1.60;99.90;-2.10;100171.00;;;;4960679;28;115971;-67
2023/03/12 04:33:34;;;;;;;3.97;1.43;;;-1.40;99.90;-2.10;100167.00;;;;4957831;28;103239;-65
2023/03/12 04:36:00;;;;;;;2.13;1.10;;;-1.60;99.90;-2.10;100170.00;;;;4955467;28;99806;-65
2023/03/12 04:38:28;;;;;;;2.97;1.47;;;-1.60;99.90;-2.00;100167.00;;;;4958847;28;116872;-65
2023/03/12 04:41:14;;;;;;;5.77;1.47;;;-1.60;99.90;-2.10;100164.00;;;;4960384;28;94192;-66
2023/03/12 04:43:40;;;;;;;1.30;1.20;;;-1.60;99.90;-2.00;100173.00;;;;4961864;28;88895;-66
2023/03/12 04:46:06;;;;;;;4.40;1.27;;;-1.70;99.90;-2.10;100157.00;;;;4969873;28;92694;-65
2023/03/12 04:48:33;;;;;;;3.83;1.70;;;-1.70;99.90;-2.10;100170.00;;;;4956797;28;88816;-66
2023/03/12 04:50:59;;;;;;;1.63;1.23;;;-1.80;99.90;-2.00;100161.00;;;;4954391;28;105053;-66
2023/03/12 04:53:25;;;;;;;2.60;1.30;;;-1.10;99.90;-2.00;100169.00;;;;4958269;28;92542;-65
2023/03/12 04:55:51;;;;;;;4.27;1.60;;;-1.60;99.90;-2.00;100172.00;;;;4958206;28;89050;-65
2023/03/12 04:58:19;;;;;;;1.63;1.47;;;-1.70;99.90;-2.00;100167.00;;;;4958252;28;116587;-67
2023/03/12 05:00:46;;;;;;;3.23;1.70;;;-1.60;99.90;-2.00;100171.00;;;;4952289;28;87537;-65
2023/03/12 05:03:12;;;;;;;3.80;1.27;;;-1.60;99.90;-2.00;100175.00;;;;4968494;28;87553;-65
2023/03/12 05:05:38;;;;;;;1.00;0.90;;;-1.60;99.90;-2.00;100175.00;;;;4984786;28;107917;-65
2023/03/12 05:08:04;;;;;;;3.73;1.60;;;-1.50;99.90;-1.90;100185.00;;;;4968361;28;93897;-66
2023/03/12 05:10:29;;;;;;;2.53;1.87;;;-1.50;99.90;-1.90;100188.00;;;;4957048;28;88139;-65
2023/03/12 05:12:58;;;;;;;4.30;3.17;;;-1.40;99.90;-1.90;100190.00;;;;4959236;28;110814;-67
2023/03/12 05:15:24;;;;;;;10.07;6.33;;;-1.60;99.90;-1.90;100193.00;;;;4960710;28;88010;-66
2023/03/12 05:17:50;;;;;;;11.97;5.50;;;-1.50;99.90;-1.90;100187.00;;;;4956773;28;87925;-64
2023/03/12 05:20:19;;;;;;;10.47;5.40;;;-1.60;99.90;-2.00;100185.00;;;;4956654;28;106696;-66
2023/03/12 05:22:44;;;;;;;5.63;3.73;;;-1.60;99.90;-1.90;100194.00;;;;4954408;28;87860;-65
2023/03/12 05:25:10;;;;;;;5.07;2.77;;;-1.60;99.90;-2.00;100198.00;;;;4971677;28;87112;-65
2023/03/12 05:27:36;;;;;;;5.07;3.10;;;-1.60;99.90;-2.00;100187.00;;;;4958958;28;105458;-66
2023/03/12 05:30:03;;;;;;;7.03;3.10;;;-0.70;99.90;-2.00;100181.00;;;;4959777;28;116708;-64
2023/03/12 05:32:29;;;;;;;8.50;3.70;;;-1.60;99.90;-2.00;100181.00;;;;4952102;28;103268;-66
2023/03/12 05:34:55;;;;;;;4.50;2.10;;;-1.60;99.90;-2.00;100187.00;;;;4956895;28;107823;-65
2023/03/12 05:37:20;;;;;;;2.93;1.30;;;-1.60;99.90;-2.00;100181.00;;;;4955984;28;116129;-66
2023/03/12 05:39:46;;;;;;;1.70;1.53;;;-1.50;99.90;-1.90;100193.00;;;;4957401;28;117288;-65
2023/03/12 05:42:18;;;;;;;5.63;1.80;;;-1.50;99.90;-1.90;100193.00;;;;4963360;28;89169;-66
2023/03/12 05:44:43;;;;;;;3.67;1.30;;;-1.50;99.90;-1.90;100192.00;;;;4954806;28;108267;-64
2023/03/12 05:47:09;;;;;;;1.83;1.10;;;-1.50;99.90;-1.90;100197.00;;;;4952891;28;117424;-64
2023/03/12 05:49:35;;;;;;;2.20;1.57;;;-1.50;99.90;-1.80;100202.00;;;;4955539;28;87167;-64
2023/03/12 05:52:00;;;;;;;3.10;1.43;;;-1.90;99.90;-1.70;100199.00;;;;4957386;28;96363;-66
2023/03/12 05:54:26;;;;;;;1.63;1.50;;;-1.40;99.90;-1.70;100192.00;;;;4956366;28;107726;-65
2023/03/12 05:56:52;;;;;;;2.90;1.20;;;-1.30;99.90;-1.60;100201.00;;;;4952791;28;89467;-64
2023/03/12 05:59:18;;;;;;;1.47;1.00;;;-1.20;99.90;-1.60;100195.00;;;;4959251;28;87770;-64
2023/03/12 06:01:43;;;;;;;2.50;1.53;;;-1.20;99.90;-1.50;100187.00;;;;4970692;28;109244;-66
2023/03/12 06:04:09;;;;;;;5.80;1.60;;;-1.20;99.90;-1.40;100186.00;;;;4954661;28;108247;-65
2023/03/12 06:06:36;;;;;;;2.03;1.40;;;-1.10;99.90;-1.30;100190.00;;;;4952852;28;117179;-67
2023/03/12 06:09:04;;;;;;;3.63;2.17;;;-0.90;99.90;-1.20;100197.00;;;;4955618;28;87774;-64
2023/03/12 06:11:32;;;;;;;5.00;2.07;;;-1.00;99.90;-1.10;100186.00;;;;4951622;28;88260;-64
2023/03/12 06:13:58;;;;;;;2.63;1.40;;;-0.80;99.90;-1.00;100198.00;;;;4955549;28;87155;-65
2023/03/12 06:16:26;;;;;;;5.97;1.83;;;-0.70;99.90;-0.90;100201.00;;;;4950095;28;89271;-64
2023/03/12 06:18:54;;;;;;;1.63;1.13;;;-0.60;99.90;-0.80;100190.00;;;;4950203;28;87859;-65
2023/03/12 06:21:23;;;;;;;4.23;1.40;;;-0.50;99.90;-0.70;100202.00;;;;4964680;28;88917;-65
2023/03/12 06:23:51;;;;;;;7.50;1.50;;;-0.40;99.90;-0.60;100196.00;;;;4953846;28;92130;-65
2023/03/12 06:26:18;;;;;;;3.30;1.10;;;-0.30;99.90;-0.50;100203.00;;;;4950934;28;89244;-64
2023/03/12 06:28:45;;;;;;;1.10;1.00;;;-0.30;99.90;-0.50;100202.00;;;;4952613;28;88938;-64
2023/03/12 06:31:12;;;;;;;3.17;1.60;;;-0.10;99.90;-0.30;100197.00;;;;4951620;28;102205;-65
2023/03/12 06:33:38;;;;;;;1.80;1.03;;;0.00;99.90;-0.30;100206.00;;;;4957205;28;108594;-64
2023/03/12 06:36:06;;;;;;;1.93;1.20;;;0.00;99.90;-0.20;100208.00;;;;4951845;28;89044;-65
2023/03/12 06:38:32;;;;;;;3.73;1.53;;;0.10;99.90;-0.10;100200.00;;;;4959887;28;87353;-66
2023/03/12 06:41:05;;;;;;;1.80;1.17;;;1.30;99.90;-0.10;100207.00;;;;4950559;28;87900;-65
2023/03/12 06:43:33;;;;;;;1.63;1.00;;;0.30;99.90;0.00;100209.00;;;;4953194;28;99452;-67
2023/03/12 06:46:00;;;;;;;1.13;1.00;;;0.40;99.90;0.10;100218.00;;;;4952797;28;89727;-66
2023/03/12 06:48:28;;;;;;;2.67;1.63;;;0.40;99.90;0.20;100218.00;;;;4952484;28;121074;-67
2023/03/12 06:50:54;;;;;;;0.63;0.60;;;0.50;99.90;0.40;100216.00;;;;4953520;28;87713;-65
2023/03/12 06:53:21;;;;;;;5.40;1.27;;;0.70;99.90;0.50;100222.00;;;;4947333;28;107884;-67
2023/03/12 06:55:49;;;;;;;3.67;0.80;;;0.80;99.90;0.70;100219.00;;;;4953545;28;109900;-67
2023/03/12 06:58:15;;;;;;;0.90;0.90;;;0.90;99.90;0.80;100218.00;;;;4963518;28;88308;-67
2023/03/12 07:00:41;;;;;;;1.73;0.63;;;1.20;99.90;1.00;100218.00;;;;4952220;28;110137;-65
2023/03/12 07:03:07;;;;;;;2.60;1.17;;;1.30;99.90;1.20;100227.00;;;;4950862;28;87978;-67
2023/03/12 07:05:33;;;;;;;1.70;0.90;;;1.40;99.90;1.40;100231.00;;;;4949472;28;88036;-67
2023/03/12 07:07:58;;;;;;;2.40;0.83;;;1.70;99.90;1.60;100224.00;;;;4948570;28;117779;-67
2023/03/12 07:10:28;;;;;;;1.00;0.90;;;1.90;99.90;1.80;100232.00;;;;4949502;28;110459;-64
2023/03/12 07:12:55;;;;;;;1.83;1.00;;;2.00;99.90;1.90;100234.00;;;;4953567;28;87610;-67
2023/03/12 07:15:21;;;;;;;1.53;1.37;;;2.10;99.90;2.10;100224.00;;;;4952214;28;88875;-67
2023/03/12 07:17:47;;;;;;;2.77;1.20;;;2.40;99.90;2.30;100237.00;;;;4965158;28;88301;-67
2023/03/12 07:20:13;;;;;;;1.90;1.33;;;2.50;99.90;2.40;100241.00;;;;4950799;28;93875;-67
2023/03/12 07:22:39;;;;;;;0.70;0.70;;;2.80;99.90;2.50;100234.00;;;;4970509;28;108507;-66
2023/03/12 07:25:05;;;;;;;1.60;0.50;;;3.50;99.90;2.40;100244.00;;;;4949111;28;88345;-66
2023/03/12 07:27:31;;;;;;;1.10;0.63;;;2.80;99.90;2.50;100232.00;;;;4952088;28;107751;-66
2023/03/12 07:29:56;;;;;;;1.47;0.87;;;2.80;99.90;2.70;100238.00;;;;4953298;28;109918;-67
2023/03/12 07:32:22;;;;;;;1.43;0.80;;;3.00;99.90;2.80;100238.00;;;;4951492;28;109017;-69
2023/03/12 07:34:48;;;;;;;1.90;1.57;;;3.10;99.90;3.00;100243.00;;;;4959969;28;120249;-67
2023/03/12 07:37:13;;;;;;;1.30;0.77;;;3.20;99.90;3.20;100247.00;;;;4950918;28;110632;-68
2023/03/12 07:39:39;;;;;;;1.43;0.83;;;3.40;99.90;3.40;100234.00;;;;4952110;28;112035;-66
2023/03/12 07:42:05;;;;;;;1.77;0.80;;;3.60;99.90;3.50;100235.00;;;;4951011;28;96355;-69
2023/03/12 07:44:32;;;;;;;0.43;0.43;;;3.90;99.90;3.70;100230.00;;;;4950462;28;87907;-69
2023/03/12 07:46:58;;;;;;;1.23;0.87;;;3.90;99.90;3.80;100233.00;;;;4947948;28;88517;-68
2023/03/12 07:49:24;;;;;;;1.40;0.63;;;4.10;99.80;3.90;100241.00;;;;4948877;28;88046;-67
2023/03/12 07:51:49;;;;;;;2.20;0.77;;;4.20;99.90;4.00;100232.00;;;;4952926;28;86989;-66
2023/03/12 07:54:15;;;;;;;1.83;1.20;;;4.20;99.80;4.00;100242.00;;;;4961341;28;119028;-67
2023/03/12 07:56:47;;;;;;;4.30;0.90;;;4.30;98.10;4.00;100235.00;;;;4949608;28;114404;-68
2023/03/12 07:59:12;;;;;;;0.60;0.53;;;4.80;97.30;4.00;100241.00;;;;4981829;27;102575;-69
2023/03/12 08:01:38;;;;;;;1.17;1.03;;;4.30;97.10;4.00;100239.00;;;;4968444;28;108943;-68
2023/03/12 08:04:04;;;;;;;1.07;0.70;;;4.40;97.10;4.20;100236.00;;;;4969748;28;116677;-69
2023/03/12 08:06:29;;;;;;;0.73;0.73;;;4.30;97.80;4.30;100246.00;;;;4971017;28;115764;-68
2023/03/12 08:08:55;;;;;;;1.87;0.77;;;4.60;97.60;4.50;100233.00;;;;4974746;28;108832;-69
2023/03/12 08:11:21;;;;;;;1.37;1.17;;;4.70;97.20;4.60;100239.00;;;;4968112;28;109548;-71
2023/03/12 08:13:46;;;;;;;2.00;0.97;;;4.80;97.00;4.70;100241.00;;;;4982537;28;94235;-71
2023/03/12 08:16:13;;;;;;;1.10;0.83;;;5.60;96.50;4.80;100237.00;;;;4974575;28;117448;-71
2023/03/12 08:18:39;;;;;;;2.73;1.13;;;5.10;95.90;5.00;100248.00;;;;4975106;28;87711;-69
2023/03/12 08:21:05;;;;;;;0.80;0.50;;;5.20;95.70;5.10;100241.00;;;;4969303;28;88243;-73
2023/03/12 08:23:30;;;;;;;2.23;0.70;;;5.80;95.30;5.20;100245.00;;;;4976792;28;89419;-73
2023/03/12 08:25:57;;;;;;;3.03;0.67;;;5.40;94.80;5.30;100248.00;;;;4974235;28;117290;-71
2023/03/12 08:28:24;;;;;;;0.50;0.40;;;5.60;94.50;5.60;100261.00;;;;4960481;28;110972;-71
2023/03/12 08:30:54;;;;;;;0.77;0.63;;;5.80;94.80;5.90;100253.00;;;;4975608;28;88193;-72
2023/03/12 08:33:20;;;;;;;1.50;1.07;;;6.50;93.80;6.00;100256.00;;;;4961895;28;98621;-73
2023/03/12 08:35:46;;;;;;;0.80;0.53;;;6.20;94.20;6.10;100244.00;;;;4971231;28;88411;-71
2023/03/12 08:38:12;;;;;;;0.63;0.63;;;6.30;93.20;6.00;100247.00;;;;4972394;28;97644;-70
2023/03/12 08:40:38;;;;;;;1.53;0.93;;;6.50;91.30;5.90;100242.00;;;;4970509;28;109053;-70
2023/03/12 08:43:04;;;;;;;0.97;0.80;;;6.40;91.70;5.80;100249.00;;;;4966504;28;89898;-72
2023/03/12 08:45:30;;;;;;;0.87;0.77;;;6.20;92.30;5.80;100258.00;;;;4972187;28;89042;-71
2023/03/12 08:47:55;;;;;;;1.03;0.50;;;6.10;91.00;5.80;100258.00;;;;4971582;28;90336;-70
2023/03/12 08:50:22;;;;;;;1.33;0.80;;;6.00;90.80;5.80;100255.00;;;;4982885;28;104908;-69
2023/03/12 08:52:48;;;;;;;3.50;1.40;;;6.00;91.10;5.80;100246.00;;;;4977998;28;88782;-71
2023/03/12 08:55:14;;;;;;;0.83;0.70;;;6.10;91.50;5.90;100256.00;;;;4973780;28;88207;-72
2023/03/12 08:57:40;;;;;;;6.37;0.67;;;6.10;91.70;5.90;100252.00;;;;4970901;28;111396;-68
2023/03/12 09:00:10;;;;;;;0.97;0.67;;;6.20;90.80;6.00;100256.00;;;;4969599;28;108057;-71
2023/03/12 09:02:37;;;;;;;1.60;0.63;;;6.20;91.40;6.10;100245.00;;;;4968912;28;88715;-70
2023/03/12 09:05:04;;;;;;;1.70;0.63;;;6.60;90.80;6.10;100236.00;;;;4971848;28;107947;-70
2023/03/12 09:07:30;;;;;;;0.60;0.30;;;6.30;91.00;6.20;100249.00;;;;4971289;28;102203;-71
2023/03/12 09:09:56;;;;;;;1.10;0.83;;;6.40;90.30;6.20;100263.00;;;;4985993;28;88003;-68
2023/03/12 09:12:22;;;;;;;0.70;0.63;;;6.40;90.20;6.20;100251.00;;;;4971136;28;117160;-68
2023/03/12 09:14:49;;;;;;;1.00;0.70;;;6.40;90.30;6.10;100247.00;;;;4970716;28;88694;-68
2023/03/12 09:17:15;;;;;;;1.37;0.73;;;6.40;88.40;6.00;100245.00;;;;4966003;28;96089;-66
2023/03/12 09:19:41;;;;;;;1.77;0.97;;;6.30;86.20;5.90;100242.00;;;;4972072;28;109158;-67
2023/03/12 09:22:07;;;;;;;0.50;0.50;;;6.10;83.80;5.80;100241.00;;;;4968939;28;116877;-67
2023/03/12 09:24:33;;;;;;;1.03;0.97;;;6.10;83.40;5.70;100246.00;;;;4970103;28;110093;-67
2023/03/12 09:26:58;;;;;;;2.17;1.50;;;6.00;84.20;5.90;100244.00;;;;4974735;27;97735;-65
2023/03/12 09:29:24;;;;;;;4.37;3.03;;;6.00;86.70;6.20;100247.00;;;;4979006;28;106695;-66
2023/03/12 09:31:50;;;;;;;1.23;1.00;;;6.80;88.10;6.50;100231.00;;;;4973151;28;88725;-65
2023/03/12 09:34:16;;;;;;;2.87;1.67;;;6.50;88.20;6.70;100236.00;;;;4974574;28;109963;-65
2023/03/12 09:36:42;;;;;;;3.03;1.47;;;6.70;87.70;7.10;100240.00;;;;4973380;28;89078;-66
2023/03/12 09:39:08;;;;;;;1.30;0.87;;;7.00;88.60;7.50;100236.00;;;;4967485;28;109543;-65
2023/03/12 09:41:38;;;;;;;1.20;0.60;;;7.40;88.80;7.80;100247.00;;;;4971721;28;89803;-65
2023/03/12 09:44:43;;;;;;;1.43;1.13;;;7.80;87.60;8.10;100243.00;;;;4972954;28;88031;-65
2023/03/12 09:47:30;;;;;;;0.73;0.40;;;8.10;86.00;8.20;100240.00;;;;4984608;28;88155;-67
2023/03/12 09:50:05;;;;;;;1.03;0.67;;;8.30;81.40;8.20;100246.00;;;;4971737;28;88065;-67
2023/03/12 09:52:57;;;;;;;0.83;0.80;;;8.30;80.40;8.50;100238.00;;;;4971116;28;110315;-67
2023/03/12 09:55:37;;;;;;;1.30;1.00;;;8.50;82.10;9.00;100243.00;;;;4972014;28;87524;-66
2023/03/12 09:58:12;;;;;;;1.40;0.93;;;8.90;82.20;9.40;100240.00;;;;4966479;28;88139;-68
2023/03/12 10:00:38;;;;;;;3.20;2.13;;;9.40;81.20;9.70;100239.00;;;;4970918;28;96317;-67
2023/03/12 10:03:40;;;;;;;2.43;0.77;;;9.70;74.90;9.80;100239.00;;;;4971807;28;89603;-68
2023/03/12 10:06:12;;;;;;;0.53;0.30;;;9.80;63.70;9.60;100233.00;;;;4999580;27;88961;-69
2023/03/12 10:09:25;;;;;;;5.70;0.70;;;9.80;61.70;9.60;100231.00;;;;4972716;28;87621;-66
2023/03/12 10:12:17;;;;;;;1.67;0.70;;;9.70;60.80;9.50;100226.00;;;;4974449;28;87866;-70
2023/03/12 10:14:56;;;;;;;0.97;0.83;;;9.70;58.70;9.50;100229.00;;;;4971147;28;88350;-67
2023/03/12 10:17:40;;;;;;;0.50;0.40;;;9.70;59.80;9.50;100227.00;;;;4970635;28;87877;-66
2023/03/12 10:20:31;;;;;;;1.23;0.60;;;9.70;60.00;9.60;100230.00;;;;4971638;28;106270;-67
2023/03/12 10:23:40;;;;;;;1.03;0.57;;;9.80;59.10;9.70;100237.00;;;;4973818;28;87171;-67
2023/03/12 10:26:12;;;;;;;1.00;0.33;;;9.80;58.00;9.60;100220.00;;;;4972836;28;88144;-68
2023/03/12 10:28:58;;;;;;;0.30;0.20;;;9.80;56.60;9.70;100214.00;;;;4967272;27;88783;-66
2023/03/12 10:31:35;;;;;;;0.60;0.40;;;9.80;56.80;9.80;100227.00;;;;4956589;28;88874;-69
2023/03/12 10:34:15;;;;;;;0.37;0.30;;;9.90;57.30;9.80;100222.00;;;;4986844;27;89302;-68
2023/03/12 10:36:41;;;;;;;2.60;0.50;;;9.90;56.70;9.80;100205.00;;;;4969782;28;90456;-67
2023/03/12 10:39:16;;;;;;;1.37;0.53;;;9.90;56.80;9.90;100215.00;;;;4971514;28;117828;-69
2023/03/12 10:41:45;;;;;;;0.23;0.23;;;10.00;56.00;9.70;100202.00;;;;4965784;28;88090;-67
2023/03/12 10:44:28;;;;;;;0.60;0.50;;;9.90;52.00;9.50;100194.00;;;;4980755;28;87436;-68
2023/03/12 10:47:22;;;;;;;0.30;0.30;;;9.70;51.40;9.50;100200.00;;;;4971303;28;116326;-69
2023/03/12 10:49:52;;;;;;;0.47;0.40;;;9.70;53.30;9.50;100194.00;;;;4983655;27;109073;-67
2023/03/12 10:52:20;;;;;;;0.90;0.53;;;9.60;53.00;9.60;100192.00;;;;4971494;28;87720;-69
2023/03/12 10:54:50;;;;;;;0.67;0.67;;;9.60;53.70;9.70;100186.00;;;;4971365;28;102959;-66
2023/03/12 10:57:16;;;;;;;1.93;0.53;;;9.70;54.80;9.80;100194.00;;;;4970593;28;90123;-66